Time;durP1;ratioP1;P1;durP2;ratioP2;P2;SDS_P1;SDS_P2;PMS_P1;PMS_P2;Temp;Humidity;BMP_temperature;BMP_pressure;BME280_temperature;BME280_humidity;BME280_pressure;Samples;Min_cycle;Max_cycle;Signal;HPM_P1;HPM_P2
2022/10/24 00:00:00;;;;;;;0.90;0.88;;;;;;;;;;5065795;28;20049;-84
2022/10/24 00:02:27;;;;;;;1.73;1.63;;;;;;;;;;5054513;28;20053;-85
2022/10/24 00:04:53;;;;;;;1.13;1.10;;;;;;;;;;5054667;28;20079;-85
2022/10/24 00:07:20;;;;;;;2.55;2.42;;;;;;;;;;5054442;28;20048;-85
2022/10/24 00:09:46;;;;;;;2.10;2.00;;;;;;;;;;5053761;28;20103;-85
2022/10/24 00:12:13;;;;;;;1.98;1.88;;;;;;;;;;5054345;28;20569;-84
2022/10/24 00:14:39;;;;;;;1.48;1.08;;;;;;;;;;5054193;28;20045;-84
2022/10/24 00:17:07;;;;;;;2.15;2.05;;;;;;;;;;5053844;28;20091;-84
2022/10/24 00:19:34;;;;;;;1.42;1.33;;;;;;;;;;5054111;28;20041;-84
2022/10/24 00:22:01;;;;;;;2.00;1.90;;;;;;;;;;5053990;28;20083;-84
2022/10/24 00:24:27;;;;;;;1.15;1.13;;;;;;;;;;5054092;28;20049;-84
2022/10/24 00:26:54;;;;;;;2.35;2.25;;;;;;;;;;5054256;28;20482;-84
2022/10/24 00:29:20;;;;;;;1.90;1.77;;;;;;;;;;5053904;28;20057;-84
2022/10/24 00:31:47;;;;;;;1.75;1.65;;;;;;;;;;5053900;28;20053;-84
2022/10/24 00:34:16;;;;;;;1.88;1.77;;;;;;;;;;5070365;28;20044;-84
2022/10/24 00:36:42;;;;;;;2.38;2.17;;;;;;;;;;5073710;28;20048;-84
2022/10/24 00:39:08;;;;;;;2.05;1.95;;;;;;;;;;5074266;28;20086;-84
2022/10/24 00:41:36;;;;;;;3.75;2.33;;;;;;;;;;5072959;28;20052;-84
2022/10/24 00:44:13;;;;;;;2.38;2.10;;;;;;;;;;5073423;28;20056;-84
2022/10/24 00:46:40;;;;;;;1.58;1.48;;;;;;;;;;5073517;28;20052;-84
2022/10/24 00:49:12;;;;;;;3.03;2.90;;;;;;;;;;5072792;28;20098;-84
2022/10/24 00:51:40;;;;;;;1.70;1.58;;;;;;;;;;5073299;28;20056;-84
2022/10/24 00:54:09;;;;;;;1.60;1.50;;;;;;;;;;5073553;28;20048;-84
2022/10/24 00:56:37;;;;;;;1.77;1.65;;;;;;;;;;5073153;28;20048;-84
2022/10/24 00:59:04;;;;;;;2.13;2.03;;;;;;;;;;5073266;28;20121;-84
2022/10/24 01:01:32;;;;;;;1.17;1.17;;;;;;;;;;5072974;28;20382;-84
2022/10/24 01:03:59;;;;;;;1.15;1.08;;;;;;;;;;5064993;28;20051;-84
2022/10/24 01:06:36;;;;;;;1.70;1.60;;;;;;;;;;5053507;28;20041;-84
2022/10/24 01:09:09;;;;;;;0.68;0.60;;;;;;;;;;5053180;28;20060;-85
2022/10/24 01:11:44;;;;;;;1.92;1.83;;;;;;;;;;5052981;28;20045;-84
2022/10/24 01:14:14;;;;;;;1.52;1.42;;;;;;;;;;5053306;28;20049;-84
2022/10/24 01:16:45;;;;;;;2.13;2.03;;;;;;;;;;5052805;28;20045;-84
2022/10/24 01:19:21;;;;;;;1.67;1.58;;;;;;;;;;5053196;28;20053;-84
2022/10/24 01:21:52;;;;;;;2.75;1.77;;;;;;;;;;5052984;28;20178;-84
2022/10/24 01:24:39;;;;;;;2.67;2.20;;;;;;;;;;5052850;28;20048;-84
2022/10/24 01:27:22;;;;;;;1.85;1.75;;;;;;;;;;5035117;28;20111;-84
2022/10/24 01:29:53;;;;;;;4.15;1.02;;;;;;;;;;5052700;28;20049;-84
2022/10/24 01:32:23;;;;;;;0.90;0.90;;;;;;;;;;5052668;28;20049;-84
2022/10/24 01:34:54;;;;;;;1.48;1.40;;;;;;;;;;5052840;28;20110;-84
2022/10/24 01:37:23;;;;;;;1.75;1.17;;;;;;;;;;5070392;28;20048;-84
2022/10/24 01:39:53;;;;;;;2.00;1.80;;;;;;;;;;5072223;28;20079;-84
2022/10/24 01:42:21;;;;;;;0.50;0.50;;;;;;;;;;5057229;28;20045;-84
2022/10/24 01:44:49;;;;;;;2.53;2.33;;;;;;;;;;5052363;28;20052;-84
2022/10/24 01:47:18;;;;;;;1.25;1.15;;;;;;;;;;5052292;28;20110;-84
2022/10/24 01:49:51;;;;;;;1.33;1.10;;;;;;;;;;5052733;28;20052;-84
2022/10/24 01:52:19;;;;;;;1.33;1.33;;;;;;;;;;5064169;28;20049;-84
2022/10/24 01:54:46;;;;;;;4.07;1.65;;;;;;;;;;5072327;28;20049;-84
2022/10/24 01:57:13;;;;;;;1.13;1.10;;;;;;;;;;5071999;28;20060;-84
2022/10/24 01:59:42;;;;;;;1.77;1.67;;;;;;;;;;5072024;28;20098;-84
2022/10/24 02:02:09;;;;;;;1.83;1.48;;;;;;;;;;5071870;28;20503;-84
2022/10/24 02:04:40;;;;;;;1.50;1.40;;;;;;;;;;5072384;28;20041;-84
2022/10/24 02:07:08;;;;;;;1.67;1.52;;;;;;;;;;5070855;28;20442;-84
2022/10/24 02:09:36;;;;;;;0.70;0.70;;;;;;;;;;5072047;28;20617;-84
2022/10/24 02:12:04;;;;;;;1.85;1.35;;;;;;;;;;5071689;28;20052;-84
2022/10/24 02:14:33;;;;;;;1.08;1.08;;;;;;;;;;5072392;28;20044;-84
2022/10/24 02:17:00;;;;;;;1.52;1.42;;;;;;;;;;5071419;28;20048;-84
2022/10/24 02:19:26;;;;;;;1.17;1.08;;;;;;;;;;5072189;28;20544;-84
2022/10/24 02:21:57;;;;;;;1.63;1.52;;;;;;;;;;5071600;28;20110;-84
2022/10/24 02:24:24;;;;;;;1.33;1.30;;;;;;;;;;5071134;28;20130;-84
2022/10/24 02:26:53;;;;;;;1.48;1.38;;;;;;;;;;5071605;28;20117;-84
2022/10/24 02:29:22;;;;;;;1.00;0.98;;;;;;;;;;5071955;28;20048;-84
2022/10/24 02:31:51;;;;;;;1.20;1.17;;;;;;;;;;5071618;28;20052;-84
2022/10/24 02:34:18;;;;;;;2.42;1.35;;;;;;;;;;5072086;28;20098;-83
2022/10/24 02:36:46;;;;;;;2.20;2.10;;;;;;;;;;5071452;28;20049;-84
2022/10/24 02:39:15;;;;;;;1.65;1.13;;;;;;;;;;5070744;28;20057;-85
2022/10/24 02:41:42;;;;;;;1.83;1.70;;;;;;;;;;5071509;28;20049;-85
2022/10/24 02:44:09;;;;;;;1.90;1.77;;;;;;;;;;5071577;28;20097;-85
2022/10/24 02:46:36;;;;;;;2.13;1.65;;;;;;;;;;5071392;28;20480;-85
2022/10/24 02:49:04;;;;;;;2.08;1.52;;;;;;;;;;5071733;28;20113;-85
2022/10/24 02:51:32;;;;;;;1.77;1.38;;;;;;;;;;5071310;28;20048;-85
2022/10/24 02:53:59;;;;;;;1.15;1.13;;;;;;;;;;5071581;28;20117;-85
2022/10/24 02:56:27;;;;;;;2.72;1.92;;;;;;;;;;5070803;28;20106;-84
2022/10/24 02:58:54;;;;;;;0.88;0.75;;;;;;;;;;5075597;28;20109;-84
2022/10/24 03:01:20;;;;;;;1.45;1.40;;;;;;;;;;5075595;28;20466;-85
2022/10/24 03:03:47;;;;;;;0.52;0.52;;;;;;;;;;5075536;28;20554;-85
2022/10/24 03:06:14;;;;;;;1.75;1.63;;;;;;;;;;5075020;28;20053;-85
2022/10/24 03:08:40;;;;;;;1.63;1.52;;;;;;;;;;5075345;28;20044;-84
2022/10/24 03:11:07;;;;;;;1.63;1.52;;;;;;;;;;5075169;28;20427;-84
2022/10/24 03:13:35;;;;;;;1.48;1.10;;;;;;;;;;5074446;28;20405;-84
2022/10/24 03:16:03;;;;;;;1.42;1.10;;;;;;;;;;5075308;28;20045;-85
2022/10/24 03:18:29;;;;;;;1.27;1.17;;;;;;;;;;5075031;28;20056;-84
2022/10/24 03:20:56;;;;;;;2.20;1.98;;;;;;;;;;5075090;28;20090;-84
2022/10/24 03:23:24;;;;;;;1.50;1.40;;;;;;;;;;5075001;28;20747;-85
2022/10/24 03:25:50;;;;;;;0.73;0.73;;;;;;;;;;5075220;28;20064;-85
2022/10/24 03:28:17;;;;;;;2.17;2.05;;;;;;;;;;5074001;28;20114;-85
2022/10/24 03:30:45;;;;;;;1.40;1.27;;;;;;;;;;5075206;28;20470;-85
2022/10/24 03:33:11;;;;;;;1.00;0.98;;;;;;;;;;5074871;28;20492;-85
2022/10/24 03:35:38;;;;;;;1.55;1.45;;;;;;;;;;5074818;28;20056;-85
2022/10/24 03:38:07;;;;;;;2.33;2.22;;;;;;;;;;5074650;28;20515;-85
2022/10/24 03:40:33;;;;;;;1.63;1.52;;;;;;;;;;5074789;28;20114;-85
2022/10/24 03:43:00;;;;;;;1.60;1.05;;;;;;;;;;5074302;28;20516;-85
2022/10/24 03:45:26;;;;;;;0.98;0.98;;;;;;;;;;5074117;28;20106;-85
2022/10/24 03:47:54;;;;;;;1.70;1.05;;;;;;;;;;5074568;28;20123;-85
2022/10/24 03:50:20;;;;;;;1.95;1.85;;;;;;;;;;5074570;28;20048;-84
2022/10/24 03:52:47;;;;;;;1.75;1.65;;;;;;;;;;5074572;28;20052;-84
2022/10/24 03:55:14;;;;;;;1.45;1.35;;;;;;;;;;5074880;28;20192;-84
2022/10/24 03:57:40;;;;;;;1.83;1.42;;;;;;;;;;5074238;28;20106;-84
2022/10/24 04:00:07;;;;;;;0.65;0.63;;;;;;;;;;5073445;28;20102;-84
2022/10/24 04:02:34;;;;;;;1.23;1.13;;;;;;;;;;5054582;28;20459;-84
2022/10/24 04:05:02;;;;;;;3.03;2.80;;;;;;;;;;5054260;28;20094;-83
2022/10/24 04:07:28;;;;;;;3.95;3.75;;;;;;;;;;5054292;28;20057;-83
2022/10/24 04:09:56;;;;;;;1.00;0.82;;;;;;;;;;5053303;28;20496;-84
2022/10/24 04:12:23;;;;;;;2.33;2.13;;;;;;;;;;5054166;28;20119;-84
2022/10/24 04:14:49;;;;;;;0.93;0.90;;;;;;;;;;5054371;28;20389;-85
2022/10/24 04:17:16;;;;;;;0.73;0.73;;;;;;;;;;5054465;28;20447;-85
2022/10/24 04:19:42;;;;;;;1.55;1.45;;;;;;;;;;5053890;28;20049;-85
2022/10/24 04:22:10;;;;;;;1.17;1.15;;;;;;;;;;5054414;28;20044;-84
2022/10/24 04:24:38;;;;;;;5.32;2.55;;;;;;;;;;5054266;28;20482;-85
2022/10/24 04:27:04;;;;;;;1.30;1.20;;;;;;;;;;5053878;28;20385;-83
2022/10/24 04:29:31;;;;;;;1.75;1.17;;;;;;;;;;5054133;28;20126;-83
2022/10/24 04:31:57;;;;;;;0.85;0.82;;;;;;;;;;5053965;28;20053;-85
2022/10/24 04:34:24;;;;;;;1.70;1.60;;;;;;;;;;5072214;28;20049;-84
2022/10/24 04:36:50;;;;;;;1.65;1.55;;;;;;;;;;5073783;28;20044;-84
2022/10/24 04:39:19;;;;;;;1.48;1.40;;;;;;;;;;5073757;28;20052;-85
2022/10/24 04:41:45;;;;;;;1.67;1.58;;;;;;;;;;5073285;28;20044;-85
2022/10/24 04:44:12;;;;;;;1.67;1.58;;;;;;;;;;5073978;28;20048;-84
2022/10/24 04:46:38;;;;;;;3.00;2.80;;;;;;;;;;5073706;28;20044;-84
2022/10/24 04:49:05;;;;;;;1.92;1.63;;;;;;;;;;5067829;28;20075;-84
2022/10/24 04:51:31;;;;;;;1.20;1.15;;;;;;;;;;5053808;28;20493;-85
2022/10/24 04:53:58;;;;;;;1.60;1.50;;;;;;;;;;5071564;28;20114;-85
2022/10/24 04:56:26;;;;;;;1.77;1.33;;;;;;;;;;5070025;28;20574;-84
2022/10/24 04:58:52;;;;;;;1.95;1.85;;;;;;;;;;5056240;28;20052;-84
2022/10/24 05:01:19;;;;;;;2.25;2.08;;;;;;;;;;5068007;28;20052;-83
2022/10/24 05:03:45;;;;;;;1.83;1.73;;;;;;;;;;5052103;28;20053;-83
2022/10/24 05:06:13;;;;;;;1.20;1.10;;;;;;;;;;5061107;28;20129;-83
2022/10/24 05:08:39;;;;;;;1.20;1.10;;;;;;;;;;5057841;28;20085;-83
2022/10/24 05:11:06;;;;;;;1.80;1.48;;;;;;;;;;5052719;28;20394;-83
2022/10/24 05:13:33;;;;;;;4.90;1.95;;;;;;;;;;5051531;28;20049;-83
2022/10/24 05:16:00;;;;;;;1.52;1.42;;;;;;;;;;5052661;28;20049;-83
2022/10/24 05:18:27;;;;;;;1.70;1.60;;;;;;;;;;5052207;28;20057;-83
2022/10/24 05:20:55;;;;;;;2.40;2.28;;;;;;;;;;5061538;28;20103;-83
2022/10/24 05:23:22;;;;;;;1.48;1.38;;;;;;;;;;5071013;28;20546;-83
2022/10/24 05:25:48;;;;;;;2.95;2.75;;;;;;;;;;5057769;28;20103;-83
2022/10/24 05:28:15;;;;;;;1.90;1.80;;;;;;;;;;5062120;28;20074;-83
2022/10/24 05:30:43;;;;;;;1.58;1.48;;;;;;;;;;5071670;28;20093;-83
2022/10/24 05:33:10;;;;;;;1.85;1.75;;;;;;;;;;5062412;28;20116;-84
2022/10/24 05:35:43;;;;;;;0.65;0.57;;;;;;;;;;5068279;28;20052;-84
2022/10/24 05:38:10;;;;;;;2.30;1.52;;;;;;;;;;5059590;28;20520;-83
2022/10/24 05:40:38;;;;;;;2.72;2.35;;;;;;;;;;5059273;28;20098;-84
2022/10/24 05:43:04;;;;;;;5.20;1.98;;;;;;;;;;5052228;28;20045;-84
2022/10/24 05:45:31;;;;;;;4.93;3.28;;;;;;;;;;5050901;28;20551;-84
2022/10/24 05:47:58;;;;;;;7.85;2.08;;;;;;;;;;5051794;28;20044;-84
2022/10/24 05:50:25;;;;;;;1.58;1.50;;;;;;;;;;5052166;28;20056;-84
2022/10/24 05:52:52;;;;;;;3.17;2.97;;;;;;;;;;5051721;28;20088;-84
2022/10/24 05:55:19;;;;;;;3.90;3.05;;;;;;;;;;5062796;28;20554;-84
2022/10/24 05:57:45;;;;;;;2.95;2.75;;;;;;;;;;5067585;28;20098;-84
2022/10/24 06:00:13;;;;;;;2.88;2.67;;;;;;;;;;5050866;28;20052;-84
2022/10/24 06:02:40;;;;;;;2.85;2.65;;;;;;;;;;5051152;28;20037;-84
2022/10/24 06:05:08;;;;;;;1.80;1.58;;;;;;;;;;5051755;28;20114;-84
2022/10/24 06:07:35;;;;;;;4.75;1.88;;;;;;;;;;5051268;28;20052;-84
2022/10/24 06:10:02;;;;;;;2.63;2.45;;;;;;;;;;5051041;28;20114;-83
2022/10/24 06:12:29;;;;;;;1.45;1.35;;;;;;;;;;5051210;28;20049;-84
2022/10/24 06:14:56;;;;;;;3.38;2.63;;;;;;;;;;5051588;28;20488;-84
2022/10/24 06:17:22;;;;;;;3.33;3.03;;;;;;;;;;5051716;28;20048;-84
2022/10/24 06:19:49;;;;;;;8.30;5.90;;;;;;;;;;5052290;28;20099;-84
2022/10/24 06:22:17;;;;;;;6.22;4.35;;;;;;;;;;5052067;28;20045;-84
2022/10/24 06:24:44;;;;;;;8.18;4.25;;;;;;;;;;5051706;28;20098;-84
2022/10/24 06:27:11;;;;;;;3.85;3.55;;;;;;;;;;5068254;28;20048;-83
2022/10/24 06:29:37;;;;;;;3.80;3.50;;;;;;;;;;5064321;28;20117;-83
2022/10/24 06:32:04;;;;;;;6.22;2.83;;;;;;;;;;5065868;28;20083;-83
2022/10/24 06:34:30;;;;;;;3.58;3.28;;;;;;;;;;5066458;28;20115;-84
2022/10/24 06:36:57;;;;;;;4.45;3.25;;;;;;;;;;5051841;28;20126;-84
2022/10/24 06:39:25;;;;;;;4.18;3.70;;;;;;;;;;5051725;28;20049;-84
2022/10/24 06:41:51;;;;;;;4.57;3.55;;;;;;;;;;5051060;28;20049;-84
2022/10/24 06:44:18;;;;;;;3.92;3.63;;;;;;;;;;5051201;28;20512;-84
2022/10/24 06:46:44;;;;;;;4.68;4.28;;;;;;;;;;5060078;28;20090;-83
2022/10/24 06:49:11;;;;;;;3.95;2.33;;;;;;;;;;5060569;28;20522;-84
2022/10/24 06:51:38;;;;;;;3.38;2.67;;;;;;;;;;5066197;28;20052;-83
2022/10/24 06:54:04;;;;;;;4.40;3.35;;;;;;;;;;5062856;28;20451;-83
2022/10/24 06:56:32;;;;;;;3.53;3.33;;;;;;;;;;5064732;28;20086;-84
2022/10/24 06:58:59;;;;;;;5.05;4.53;;;;;;;;;;5069296;28;20044;-84
2022/10/24 07:01:26;;;;;;;2.75;2.55;;;;;;;;;;5070202;28;20133;-83
2022/10/24 07:03:53;;;;;;;3.92;3.58;;;;;;;;;;5063513;28;20467;-83
2022/10/24 07:06:21;;;;;;;4.63;4.32;;;;;;;;;;5062074;28;20109;-83
2022/10/24 07:08:47;;;;;;;3.00;2.75;;;;;;;;;;5068035;28;20106;-83
2022/10/24 07:11:14;;;;;;;3.35;3.10;;;;;;;;;;5069976;28;20561;-83
2022/10/24 07:13:42;;;;;;;2.05;1.92;;;;;;;;;;5063491;28;20128;-83
2022/10/24 07:16:09;;;;;;;4.30;3.90;;;;;;;;;;5065090;28;20044;-83
2022/10/24 07:18:35;;;;;;;3.70;3.28;;;;;;;;;;5065686;28;20459;-83
2022/10/24 07:21:02;;;;;;;3.90;2.75;;;;;;;;;;5065666;28;20075;-83
2022/10/24 07:23:28;;;;;;;4.80;2.78;;;;;;;;;;5058676;28;20102;-83
2022/10/24 07:25:55;;;;;;;3.33;2.78;;;;;;;;;;5069770;28;20101;-83
2022/10/24 07:28:22;;;;;;;2.63;2.33;;;;;;;;;;5070797;28;20412;-83
2022/10/24 07:30:50;;;;;;;2.08;1.92;;;;;;;;;;5052041;28;20049;-83
2022/10/24 07:33:17;;;;;;;4.95;4.55;;;;;;;;;;5063430;28;20162;-83
2022/10/24 07:35:43;;;;;;;3.67;3.45;;;;;;;;;;5057302;28;20048;-83
2022/10/24 07:38:10;;;;;;;4.22;3.88;;;;;;;;;;5064592;28;20075;-83
2022/10/24 07:40:36;;;;;;;3.30;2.85;;;;;;;;;;5071044;28;20094;-83
2022/10/24 07:43:03;;;;;;;4.95;3.40;;;;;;;;;;5070835;28;20102;-83
2022/10/24 07:45:31;;;;;;;3.67;3.35;;;;;;;;;;5058448;28;20099;-83
2022/10/24 07:47:59;;;;;;;3.10;2.90;;;;;;;;;;5076040;28;20136;-83
2022/10/24 07:50:25;;;;;;;2.95;2.75;;;;;;;;;;5070599;28;20389;-83
2022/10/24 07:52:52;;;;;;;2.10;1.98;;;;;;;;;;5073354;28;20466;-83
2022/10/24 07:55:19;;;;;;;2.45;2.28;;;;;;;;;;5070934;28;20049;-83
2022/10/24 07:57:45;;;;;;;3.08;2.88;;;;;;;;;;5073466;28;20078;-83
2022/10/24 08:00:12;;;;;;;3.85;3.60;;;;;;;;;;5067243;28;20110;-83
2022/10/24 08:02:39;;;;;;;3.97;3.75;;;;;;;;;;5074559;28;20126;-84
2022/10/24 08:05:07;;;;;;;4.95;4.25;;;;;;;;;;5072618;28;20053;-83
2022/10/24 08:07:34;;;;;;;4.03;3.63;;;;;;;;;;5066234;28;20053;-83
2022/10/24 08:10:01;;;;;;;5.10;3.63;;;;;;;;;;5061992;28;20698;-83
2022/10/24 08:12:28;;;;;;;2.85;2.63;;;;;;;;;;5065104;28;20155;-83
2022/10/24 08:14:54;;;;;;;4.78;4.38;;;;;;;;;;5067244;28;20056;-85
2022/10/24 08:17:22;;;;;;;4.88;4.57;;;;;;;;;;5070232;28;20435;-82
2022/10/24 08:19:49;;;;;;;4.10;2.55;;;;;;;;;;5074140;28;20049;-84
2022/10/24 08:22:17;;;;;;;3.78;3.53;;;;;;;;;;5065808;28;20110;-84
2022/10/24 08:24:43;;;;;;;2.40;2.30;;;;;;;;;;5079428;28;20124;-85
2022/10/24 08:27:10;;;;;;;3.60;3.40;;;;;;;;;;5073988;28;20045;-82
2022/10/24 08:29:36;;;;;;;4.05;3.83;;;;;;;;;;5073116;28;20052;-82
2022/10/24 08:32:03;;;;;;;4.07;3.78;;;;;;;;;;5073730;28;20052;-82
2022/10/24 08:34:29;;;;;;;3.35;3.15;;;;;;;;;;5062392;28;20467;-83
2022/10/24 08:36:56;;;;;;;2.90;2.70;;;;;;;;;;5070846;28;20044;-83
2022/10/24 08:39:25;;;;;;;4.47;3.00;;;;;;;;;;5069421;28;20097;-83
2022/10/24 08:41:54;;;;;;;4.43;2.95;;;;;;;;;;5068139;28;20053;-83
2022/10/24 08:44:23;;;;;;;5.72;3.95;;;;;;;;;;5064164;28;20130;-83
2022/10/24 08:46:51;;;;;;;4.60;4.07;;;;;;;;;;5069813;28;20454;-83
2022/10/24 08:49:21;;;;;;;3.35;3.13;;;;;;;;;;5065257;28;20109;-83
2022/10/24 08:51:51;;;;;;;3.20;3.00;;;;;;;;;;5073387;28;20044;-83
2022/10/24 08:54:19;;;;;;;3.72;3.42;;;;;;;;;;5068526;28;20053;-84
2022/10/24 08:56:47;;;;;;;2.92;2.63;;;;;;;;;;5073148;28;20646;-84
2022/10/24 08:59:14;;;;;;;4.03;3.28;;;;;;;;;;5066179;28;20045;-84
2022/10/24 09:01:43;;;;;;;2.97;2.70;;;;;;;;;;5070880;28;20052;-83
2022/10/24 09:04:12;;;;;;;3.20;3.00;;;;;;;;;;5067082;28;20110;-83
2022/10/24 09:06:39;;;;;;;3.88;3.45;;;;;;;;;;5066667;28;20110;-84
2022/10/24 09:09:10;;;;;;;4.13;3.83;;;;;;;;;;5069375;28;20459;-84
2022/10/24 09:11:41;;;;;;;6.35;5.70;;;;;;;;;;5076308;28;20463;-83
2022/10/24 09:14:12;;;;;;;4.15;3.72;;;;;;;;;;5066986;28;20774;-84
2022/10/24 09:16:40;;;;;;;3.95;3.65;;;;;;;;;;5066782;28;20771;-84
2022/10/24 09:19:10;;;;;;;6.63;3.15;;;;;;;;;;5067062;28;20117;-83
2022/10/24 09:21:40;;;;;;;3.70;3.47;;;;;;;;;;5066878;28;20102;-84
2022/10/24 09:24:06;;;;;;;3.42;3.17;;;;;;;;;;5072358;28;20488;-84
2022/10/24 09:26:33;;;;;;;3.90;3.63;;;;;;;;;;5062469;28;20109;-83
2022/10/24 09:29:00;;;;;;;3.70;3.40;;;;;;;;;;5064046;28;20052;-83
2022/10/24 09:31:28;;;;;;;5.35;5.05;;;;;;;;;;5061633;28;20045;-83
2022/10/24 09:33:55;;;;;;;4.10;3.72;;;;;;;;;;5064420;28;20041;-83
2022/10/24 09:36:23;;;;;;;3.85;3.50;;;;;;;;;;5064308;28;20385;-83
2022/10/24 09:38:50;;;;;;;5.68;4.05;;;;;;;;;;5061927;28;20132;-84
2022/10/24 09:41:18;;;;;;;3.20;3.00;;;;;;;;;;5063863;28;20078;-84
2022/10/24 09:43:49;;;;;;;4.53;4.22;;;;;;;;;;5063318;28;20122;-84
2022/10/24 09:46:17;;;;;;;5.47;4.50;;;;;;;;;;5061078;28;20408;-84
2022/10/24 09:48:51;;;;;;;4.07;3.47;;;;;;;;;;5068209;28;20410;-84
2022/10/24 09:51:23;;;;;;;4.72;4.43;;;;;;;;;;5060872;28;20102;-84
2022/10/24 09:54:04;;;;;;;4.10;3.80;;;;;;;;;;5063165;28;20106;-84
2022/10/24 09:56:36;;;;;;;4.75;4.32;;;;;;;;;;5054273;28;20044;-84
2022/10/24 09:59:17;;;;;;;7.00;3.72;;;;;;;;;;5051585;28;20099;-84
2022/10/24 10:01:44;;;;;;;8.60;7.88;;;;;;;;;;5061062;28;20435;-85
2022/10/24 10:04:15;;;;;;;5.22;4.78;;;;;;;;;;5066186;28;20052;-83
2022/10/24 10:06:44;;;;;;;7.35;6.95;;;;;;;;;;5063266;28;20067;-84
2022/10/24 10:09:12;;;;;;;3.90;3.60;;;;;;;;;;5049002;28;20156;-85
2022/10/24 10:11:38;;;;;;;5.50;5.10;;;;;;;;;;5067202;28;20090;-85
2022/10/24 10:14:16;;;;;;;3.33;3.03;;;;;;;;;;5069791;28;20053;-84
2022/10/24 10:16:42;;;;;;;4.10;3.70;;;;;;;;;;5071410;28;20052;-84
2022/10/24 10:19:15;;;;;;;4.57;3.38;;;;;;;;;;5071283;28;20504;-84
2022/10/24 10:21:52;;;;;;;4.93;4.53;;;;;;;;;;5071271;28;20381;-84
2022/10/24 10:24:24;;;;;;;3.50;3.30;;;;;;;;;;5059871;28;20048;-84
2022/10/24 10:26:51;;;;;;;6.32;5.93;;;;;;;;;;5051405;28;20049;-84
2022/10/24 10:29:22;;;;;;;4.93;4.22;;;;;;;;;;5050729;28;20045;-85
2022/10/24 10:31:49;;;;;;;4.57;4.18;;;;;;;;;;5051455;28;20489;-84
2022/10/24 10:34:20;;;;;;;5.63;5.32;;;;;;;;;;5051818;28;20044;-84
2022/10/24 10:36:51;;;;;;;4.70;4.28;;;;;;;;;;5051265;28;20144;-84
2022/10/24 10:39:29;;;;;;;7.03;6.35;;;;;;;;;;5051594;28;20045;-84
2022/10/24 10:41:57;;;;;;;5.75;5.15;;;;;;;;;;5051066;28;20052;-84
2022/10/24 10:44:33;;;;;;;7.00;6.40;;;;;;;;;;5051120;28;20059;-84
2022/10/24 10:47:06;;;;;;;5.50;5.10;;;;;;;;;;5051347;28;20113;-84
2022/10/24 10:49:38;;;;;;;6.85;6.53;;;;;;;;;;5051407;28;20045;-85
2022/10/24 10:52:06;;;;;;;4.90;4.45;;;;;;;;;;5060187;28;20159;-84
2022/10/24 10:54:54;;;;;;;6.32;5.82;;;;;;;;;;5061973;28;20550;-84
2022/10/24 10:57:21;;;;;;;6.55;6.05;;;;;;;;;;5057120;28;20451;-83
2022/10/24 10:59:54;;;;;;;5.25;4.93;;;;;;;;;;5055380;28;20052;-83
2022/10/24 11:02:27;;;;;;;6.78;6.32;;;;;;;;;;5062913;28;20516;-84
2022/10/24 11:04:58;;;;;;;4.88;4.43;;;;;;;;;;5061268;28;20057;-84
2022/10/24 11:07:29;;;;;;;5.68;5.35;;;;;;;;;;5050852;28;20485;-84
2022/10/24 11:09:57;;;;;;;10.10;9.50;;;;;;;;;;5051344;28;20102;-84
2022/10/24 11:12:25;;;;;;;7.45;6.82;;;;;;;;;;5050800;28;20053;-84
2022/10/24 11:14:56;;;;;;;5.18;4.82;;;;;;;;;;5051034;28;20040;-84
2022/10/24 11:17:24;;;;;;;7.65;6.85;;;;;;;;;;5067554;28;20057;-84
2022/10/24 11:19:56;;;;;;;10.10;9.25;;;;;;;;;;5069962;28;20192;-84
2022/10/24 11:22:25;;;;;;;8.82;8.23;;;;;;;;;;5075334;28;20052;-84
2022/10/24 11:24:56;;;;;;;7.43;6.88;;;;;;;;;;5067328;28;20040;-84
2022/10/24 11:27:25;;;;;;;8.57;7.88;;;;;;;;;;5074217;28;20051;-84
2022/10/24 11:29:55;;;;;;;9.70;8.90;;;;;;;;;;5074762;28;20044;-84
2022/10/24 11:32:25;;;;;;;7.13;6.47;;;;;;;;;;5074853;28;20053;-84
2022/10/24 11:34:54;;;;;;;6.97;5.80;;;;;;;;;;5074771;28;20455;-84
2022/10/24 11:37:24;;;;;;;9.02;8.52;;;;;;;;;;5074101;28;20129;-84
2022/10/24 11:39:54;;;;;;;7.43;6.72;;;;;;;;;;5074437;28;20477;-84
2022/10/24 11:42:25;;;;;;;8.80;8.35;;;;;;;;;;5074253;28;20533;-84
2022/10/24 11:44:55;;;;;;;8.50;7.90;;;;;;;;;;5074141;28;20057;-84
2022/10/24 11:47:21;;;;;;;;;;;;;;;;;;5075217;28;20074;-84
2022/10/24 11:49:49;;;;;;;5.95;5.57;;;;;;;;;;5074197;28;19966;-84
2022/10/24 11:52:19;;;;;;;9.27;8.60;;;;;;;;;;5076369;28;20053;-84
2022/10/24 11:54:49;;;;;;;7.38;6.80;;;;;;;;;;5074572;28;20044;-84
2022/10/24 11:57:19;;;;;;;10.75;10.05;;;;;;;;;;5061032;28;20047;-84
2022/10/24 11:59:45;;;;;;;9.95;9.15;;;;;;;;;;5067897;28;20098;-84
2022/10/24 12:02:29;;;;;;;11.65;10.73;;;;;;;;;;5070879;28;20044;-84
2022/10/24 12:05:07;;;;;;;9.88;9.30;;;;;;;;;;5071502;28;20778;-84
2022/10/24 12:07:44;;;;;;;6.60;6.20;;;;;;;;;;5072939;28;20045;-84
2022/10/24 12:10:28;;;;;;;8.75;8.23;;;;;;;;;;5062638;28;20049;-82
2022/10/24 12:13:12;;;;;;;8.13;7.70;;;;;;;;;;5070563;28;20557;-82
2022/10/24 12:15:45;;;;;;;10.68;10.05;;;;;;;;;;5073114;28;20164;-83
2022/10/24 12:18:13;;;;;;;8.75;8.13;;;;;;;;;;5072153;28;20117;-83
2022/10/24 12:20:40;;;;;;;8.27;7.63;;;;;;;;;;5066055;28;20485;-83
2022/10/24 12:23:07;;;;;;;12.43;11.30;;;;;;;;;;5068242;28;20057;-83
2022/10/24 12:25:35;;;;;;;11.32;10.30;;;;;;;;;;5070158;28;20060;-83
2022/10/24 12:28:02;;;;;;;11.73;10.70;;;;;;;;;;5067679;28;20044;-83
2022/10/24 12:30:32;;;;;;;15.52;14.27;;;;;;;;;;5066832;28;20048;-84
2022/10/24 12:33:07;;;;;;;11.25;10.63;;;;;;;;;;5066529;28;20109;-84
2022/10/24 12:35:45;;;;;;;7.53;6.95;;;;;;;;;;5065139;28;20053;-86
2022/10/24 12:38:16;;;;;;;8.63;8.00;;;;;;;;;;5063482;28;20044;-85
2022/10/24 12:40:47;;;;;;;10.75;9.95;;;;;;;;;;5073943;28;20043;-85
2022/10/24 12:43:27;;;;;;;13.32;12.38;;;;;;;;;;5076642;28;20105;-84
2022/10/24 12:45:58;;;;;;;12.57;11.88;;;;;;;;;;5062754;28;20696;-84
2022/10/24 12:48:30;;;;;;;7.22;6.78;;;;;;;;;;5073152;28;20131;-84
2022/10/24 12:50:58;;;;;;;8.88;8.35;;;;;;;;;;5068089;28;20044;-84
2022/10/24 12:53:31;;;;;;;10.55;9.82;;;;;;;;;;5070091;28;20110;-83
2022/10/24 12:56:17;;;;;;;12.32;11.45;;;;;;;;;;5069397;28;20045;-83
2022/10/24 12:58:56;;;;;;;8.30;7.68;;;;;;;;;;5072609;28;20044;-85
2022/10/24 13:01:26;;;;;;;10.23;9.38;;;;;;;;;;5061620;28;20091;-84
2022/10/24 13:04:10;;;;;;;10.95;10.35;;;;;;;;;;5060718;28;20041;-84
2022/10/24 13:06:43;;;;;;;11.98;10.85;;;;;;;;;;5033315;28;20090;-85
2022/10/24 13:09:18;;;;;;;12.80;12.13;;;;;;;;;;5066073;28;20496;-84
2022/10/24 13:11:51;;;;;;;11.38;10.55;;;;;;;;;;5069989;28;20056;-84
2022/10/24 13:14:39;;;;;;;11.45;10.80;;;;;;;;;;5072756;28;20087;-84
2022/10/24 13:17:09;;;;;;;12.40;11.50;;;;;;;;;;5046425;28;20060;-84
2022/10/24 13:19:35;;;;;;;10.20;9.30;;;;;;;;;;5072836;28;20044;-83
2022/10/24 13:22:02;;;;;;;8.70;8.10;;;;;;;;;;5069708;28;20404;-83
2022/10/24 13:24:32;;;;;;;9.35;8.63;;;;;;;;;;5067768;28;20045;-83
2022/10/24 13:27:14;;;;;;;11.52;10.82;;;;;;;;;;5067277;28;20120;-84
2022/10/24 13:30:01;;;;;;;12.82;11.70;;;;;;;;;;5063960;28;20092;-84
2022/10/24 13:32:34;;;;;;;14.45;13.55;;;;;;;;;;5053926;28;20044;-84
2022/10/24 13:35:01;;;;;;;12.82;11.85;;;;;;;;;;5052396;28;20080;-83
2022/10/24 13:37:29;;;;;;;12.85;11.88;;;;;;;;;;5053647;28;20049;-83
2022/10/24 13:39:56;;;;;;;12.98;12.35;;;;;;;;;;5071177;28;20111;-84
2022/10/24 13:42:25;;;;;;;13.68;12.65;;;;;;;;;;5054830;28;20119;-84
2022/10/24 13:44:52;;;;;;;8.27;7.47;;;;;;;;;;5064009;28;20403;-84
2022/10/24 13:47:21;;;;;;;10.02;8.75;;;;;;;;;;5053792;28;20041;-85
2022/10/24 13:49:57;;;;;;;11.32;10.50;;;;;;;;;;5053517;28;20048;-85
2022/10/24 13:52:26;;;;;;;12.98;11.88;;;;;;;;;;5056428;28;20053;-85
2022/10/24 13:54:57;;;;;;;10.93;10.20;;;;;;;;;;5059653;28;20048;-85
2022/10/24 13:57:28;;;;;;;9.32;8.05;;;;;;;;;;5060861;28;20051;-85
2022/10/24 13:59:58;;;;;;;8.77;7.18;;;;;;;;;;5061275;28;20450;-84
2022/10/24 14:02:26;;;;;;;10.48;9.82;;;;;;;;;;5069176;28;20052;-84
2022/10/24 14:04:53;;;;;;;7.38;6.70;;;;;;;;;;5071040;28;20108;-84
2022/10/24 14:07:23;;;;;;;13.13;12.40;;;;;;;;;;5071449;28;20109;-83
2022/10/24 14:09:49;;;;;;;;;;;;;;;;;;5071636;28;20048;-83
2022/10/24 14:12:19;;;;;;;6.97;6.38;;;;;;;;;;5057241;28;19974;-83
2022/10/24 14:14:48;;;;;;;12.90;12.10;;;;;;;;;;5064732;28;20048;-83
2022/10/24 14:17:19;;;;;;;11.90;9.90;;;;;;;;;;5070848;28;20504;-83
2022/10/24 14:19:50;;;;;;;8.80;8.15;;;;;;;;;;5051554;28;20053;-83
2022/10/24 14:22:18;;;;;;;8.35;7.90;;;;;;;;;;5051401;28;20627;-83
2022/10/24 14:24:47;;;;;;;7.50;6.70;;;;;;;;;;5050957;28;20048;-83
2022/10/24 14:27:14;;;;;;;9.50;8.98;;;;;;;;;;5053203;28;20040;-83
2022/10/24 14:29:50;;;;;;;8.55;7.80;;;;;;;;;;5062411;28;20045;-83
2022/10/24 14:32:16;;;;;;;6.82;6.22;;;;;;;;;;5059100;28;20057;-83
2022/10/24 14:34:43;;;;;;;8.30;7.53;;;;;;;;;;5060319;28;20053;-84
2022/10/24 14:37:13;;;;;;;9.63;8.73;;;;;;;;;;5070891;28;20458;-83
2022/10/24 14:39:40;;;;;;;7.15;6.50;;;;;;;;;;5070129;28;20838;-84
2022/10/24 14:42:12;;;;;;;8.10;7.40;;;;;;;;;;5059944;28;20056;-84
2022/10/24 14:44:39;;;;;;;7.45;6.75;;;;;;;;;;5059318;28;20048;-84
2022/10/24 14:47:06;;;;;;;10.25;9.60;;;;;;;;;;5053602;28;20562;-84
2022/10/24 14:49:35;;;;;;;6.07;5.68;;;;;;;;;;5053951;28;20045;-84